Time;durP1;ratioP1;P1;durP2;ratioP2;P2;SDS_P1;SDS_P2;PMS_P1;PMS_P2;Temp;Humidity;BMP_temperature;BMP_pressure;BME280_temperature;BME280_humidity;BME280_pressure;Samples;Min_cycle;Max_cycle;Signal;HPM_P1;HPM_P2
2023/06/08 00:01:54;;;;;;;;;32.00;30.00;;;;;17.36;100.00;99530.78;6285526;20;3583642;-62
2023/06/08 00:04:23;;;;;;;;;29.50;27.50;;;;;17.27;100.00;99538.78;6283569;20;3470073;-62
2023/06/08 00:06:52;;;;;;;;;35.00;30.67;;;;;17.17;100.00;99535.19;6311763;20;3606664;-62
2023/06/08 00:09:21;;;;;;;;;34.67;30.00;;;;;17.21;100.00;99527.63;6316187;20;3589836;-62
2023/06/08 00:11:49;;;;;;;;;28.33;28.33;;;;;17.16;100.00;99530.75;6286143;20;3590902;-61
2023/06/08 00:14:18;;;;;;;;;35.33;32.67;;;;;17.29;100.00;99525.06;6283371;20;3585736;-61
2023/06/08 00:16:48;;;;;;;;;35.00;30.33;;;;;17.25;100.00;99529.91;6286432;20;3591986;-61
2023/06/08 00:19:16;;;;;;;;;33.33;29.00;;;;;17.22;100.00;99530.22;6285175;20;3614867;-61
2023/06/08 00:21:48;;;;;;;;;31.00;26.33;;;;;17.25;100.00;99516.34;6285370;20;3592968;-62
2023/06/08 00:24:19;;;;;;;;;34.67;30.33;;;;;17.32;100.00;99520.22;6284566;20;3596204;-61
2023/06/08 00:26:47;;;;;;;;;32.67;28.33;;;;;17.39;100.00;99514.22;6285347;20;3610683;-61
2023/06/08 00:29:16;;;;;;;;;33.00;29.67;;;;;17.37;100.00;99521.63;6285929;20;3610706;-61
2023/06/08 00:31:44;;;;;;;;;34.67;31.67;;;;;17.39;100.00;99515.06;6287512;20;3594186;-62
2023/06/08 00:34:13;;;;;;;;;35.00;29.33;;;;;17.34;100.00;99515.47;6282802;20;3595059;-61
2023/06/08 00:36:42;;;;;;;;;32.67;30.00;;;;;17.37;100.00;99521.63;6282880;20;3592124;-61
2023/06/08 00:39:11;;;;;;;;;27.67;27.67;;;;;17.40;100.00;99518.63;6317605;20;3599246;-61
2023/06/08 00:41:39;;;;;;;;;31.33;29.33;;;;;17.54;100.00;99520.94;6284103;20;3585706;-61
2023/06/08 00:44:08;;;;;;;;;35.67;32.33;;;;;17.58;100.00;99525.06;6281818;20;3583706;-61
2023/06/08 00:46:38;;;;;;;;;33.00;30.67;;;;;17.50;100.00;99516.78;6283636;20;3591996;-61
2023/06/08 00:49:16;;;;;;;;;35.13;32.38;;;;;17.62;100.00;99522.94;6304652;20;3602395;-62
2023/06/08 00:51:45;;;;;;;;;30.33;27.67;;;;;17.66;100.00;99530.63;6283223;20;3594157;-62
2023/06/08 00:54:15;;;;;;;;;31.00;27.75;;;;;17.59;100.00;99521.38;6280277;20;3602293;-61
2023/06/08 00:56:48;;;;;;;;;32.67;30.33;;;;;17.60;100.00;99528.50;6314681;20;3586727;-61
2023/06/08 00:59:18;;;;;;;;;32.67;30.67;;;;;17.55;100.00;99522.63;6281049;20;3587760;-62
2023/06/08 01:01:47;;;;;;;;;28.33;26.33;;;;;17.62;100.00;99523.78;6286356;20;3593051;-61
2023/06/08 01:04:16;;;;;;;;;35.00;31.33;;;;;17.71;100.00;99522.91;6281326;20;3576527;-61
2023/06/08 01:06:48;;;;;;;;;33.33;30.00;;;;;17.65;100.00;99522.66;6280953;20;3604423;-61
2023/06/08 01:09:37;;;;;;;;;36.00;31.67;;;;;17.53;100.00;99530.06;6285856;20;3599258;-61
2023/06/08 01:12:08;;;;;;;;;32.00;30.67;;;;;17.59;100.00;99526.78;6280539;20;3566405;-61
2023/06/08 01:15:05;;;;;;;;;33.00;30.00;;;;;17.62;100.00;99521.06;6283699;20;3576437;-61
2023/06/08 01:17:40;;;;;;;;;32.00;29.67;;;;;17.58;100.00;99527.78;6284034;20;3595114;-61
2023/06/08 01:20:49;;;;;;;;;31.67;30.67;;;;;17.74;100.00;99536.19;6278571;20;3583585;-60
2023/06/08 01:23:45;;;;;;;;;34.67;31.00;;;;;17.62;100.00;99534.66;6314315;20;3581675;-60
2023/06/08 01:26:15;;;;;;;;;26.67;26.33;;;;;17.67;100.00;99535.06;6284485;20;3594135;-61
2023/06/08 01:28:48;;;;;;;;;34.67;30.00;;;;;17.64;100.00;99535.38;6281909;20;3595144;-61
2023/06/08 01:31:17;;;;;;;;;28.00;28.00;;;;;17.55;100.00;99526.22;6279943;20;1894095;-61
2023/06/08 01:33:45;;;;;;;;;28.67;28.67;;;;;17.64;100.00;99529.94;6308412;20;3600296;-61
2023/06/08 01:36:35;;;;;;;;;32.00;27.00;;;;;17.66;100.00;99524.34;6273136;20;3609836;-61
2023/06/08 01:39:40;;;;;;;;;32.00;30.00;;;;;17.63;100.00;99528.22;6275974;20;3596478;-61
2023/06/08 01:42:13;;;;;;;;;32.67;30.67;;;;;17.67;100.00;99535.06;6278529;20;3601684;-60
2023/06/08 01:44:47;;;;;;;;;28.00;26.67;;;;;17.65;100.00;99531.63;6270584;20;3595215;-61
2023/06/08 01:47:18;;;;;;;;;34.75;30.75;;;;;17.68;100.00;99536.78;6304699;20;3619064;-61
2023/06/08 01:49:48;;;;;;;;;28.67;27.67;;;;;17.62;100.00;99537.38;6308161;20;3597278;-61
2023/06/08 01:52:16;;;;;;;;;30.00;29.00;;;;;17.73;100.00;99529.06;6274681;20;3604550;-61
2023/06/08 01:54:45;;;;;;;;;31.33;28.00;;;;;17.51;100.00;99523.94;6280910;20;3610668;-60
2023/06/08 01:57:14;;;;;;;;;31.50;29.00;;;;;17.63;100.00;99528.22;6281603;20;3604591;-61
2023/06/08 01:59:42;;;;;;;;;32.67;27.00;;;;;17.66;100.00;99524.34;6313606;20;3605507;-61
2023/06/08 02:02:10;;;;;;;;;31.33;30.33;;;;;17.70;100.00;99518.50;6276734;20;3607676;-61
2023/06/08 02:04:39;;;;;;;;;28.67;27.00;;;;;17.58;100.00;99519.63;6279399;20;3594231;-61
2023/06/08 02:07:07;;;;;;;;;31.00;29.00;;;;;17.70;100.00;99517.66;6280601;20;3603526;-61
2023/06/08 02:09:35;;;;;;;;;31.33;27.67;;;;;17.62;100.00;99518.34;6280896;20;3587828;-61
2023/06/08 02:12:06;;;;;;;;;28.67;27.33;;;;;17.57;100.00;99519.78;6280536;20;3598194;-61
2023/06/08 02:14:35;;;;;;;;;25.33;25.33;;;;;17.57;100.00;99512.50;6281141;20;3596144;-61
2023/06/08 02:17:03;;;;;;;;;29.67;28.00;;;;;17.68;100.00;99515.06;6280660;20;3603367;-61
2023/06/08 02:19:32;;;;;;;;;27.67;27.67;;;;;17.63;100.00;99516.50;6282188;20;3596100;-61
2023/06/08 02:22:01;;;;;;;;;29.00;26.25;;;;;17.65;100.00;99514.50;6284287;20;3595239;-61
2023/06/08 02:24:29;;;;;;;;;26.67;25.00;;;;;17.57;100.00;99517.94;6317846;20;3589817;-60
2023/06/08 02:26:58;;;;;;;;;33.67;27.33;;;;;17.58;100.00;99519.63;6284672;20;2865991;-60
2023/06/08 02:29:27;;;;;;;;;30.33;28.00;;;;;17.63;100.00;99522.78;6317692;20;3600327;-61
2023/06/08 02:31:56;;;;;;;;;29.00;26.67;;;;;17.59;100.00;99521.38;6285383;20;3591949;-61
2023/06/08 02:34:24;;;;;;;;;27.33;27.00;;;;;17.72;100.00;99524.66;6168477;20;3597171;-61
2023/06/08 02:36:53;;;;;;;;;28.00;26.67;;;;;17.60;100.00;99520.34;6287094;20;3590885;-61
2023/06/08 02:39:21;;;;;;;;;26.00;24.00;;;;;17.53;100.00;99520.06;6287530;20;3586806;-60
2023/06/08 02:41:49;;;;;;;;;28.50;28.00;;;;;17.61;100.00;99523.91;6287116;20;2692962;-61
2023/06/08 02:44:18;;;;;;;;;25.67;22.67;;;;;17.63;100.00;99519.22;6315945;20;3583612;-61
2023/06/08 02:46:47;;;;;;;;;25.00;22.00;;;;;17.64;100.00;99524.50;6287617;20;3451382;-61
2023/06/08 02:49:15;;;;;;;;;26.00;26.00;;;;;17.52;100.00;99525.66;6323515;20;3589872;-60
2023/06/08 02:51:43;;;;;;;;;33.67;31.00;;;;;17.54;100.00;99529.09;6284801;20;3584642;-61
2023/06/08 02:54:12;;;;;;;;;26.33;25.33;;;;;17.49;100.00;99523.22;6281991;20;3589867;-60
2023/06/08 02:56:40;;;;;;;;;28.67;25.67;;;;;17.52;100.00;99520.22;6315479;20;3598192;-61
2023/06/08 02:59:09;;;;;;;;;29.33;24.00;;;;;17.58;100.00;99516.91;6286531;20;3594148;-61
2023/06/08 03:01:37;;;;;;;;;27.33;25.00;;;;;17.57;100.00;99522.50;6286227;20;3598315;-61
2023/06/08 03:04:05;;;;;;;;;30.00;26.00;;;;;17.59;100.00;99521.38;6277719;20;3592046;-61
2023/06/08 03:06:36;;;;;;;;;29.00;27.00;;;;;17.57;100.00;99523.34;6284758;20;3606497;-61
2023/06/08 03:09:04;;;;;;;;;27.67;24.67;;;;;17.62;100.00;99517.50;6288756;20;3583614;-61
2023/06/08 03:11:33;;;;;;;;;35.00;28.00;;;;;17.62;100.00;99514.78;6284644;20;3614916;-60
2023/06/08 03:14:03;;;;;;;;;28.67;26.33;;;;;17.62;100.00;99512.06;6311546;20;3595201;-61
2023/06/08 03:16:31;;;;;;;;;30.33;24.67;;;;;17.61;100.00;99511.19;6286091;20;3604410;-60
2023/06/08 03:19:00;;;;;;;;;27.00;26.00;;;;;17.68;100.00;99516.91;6286213;20;3600250;-61
2023/06/08 03:21:28;;;;;;;;;31.00;27.00;;;;;17.69;100.00;99515.91;6286503;20;3607518;-61
2023/06/08 03:23:57;;;;;;;;;25.67;25.67;;;;;17.70;100.00;99518.50;6283232;20;3583648;-60
2023/06/08 03:26:26;;;;;;;;;28.00;27.00;;;;;17.75;100.00;99521.63;6286404;20;3606531;-60
2023/06/08 03:28:54;;;;;;;;;31.67;26.67;;;;;17.78;100.00;99523.22;6317691;20;3610660;-61
2023/06/08 03:31:22;;;;;;;;;31.67;30.00;;;;;17.67;100.00;99524.22;6282480;20;3596087;-60
2023/06/08 03:33:51;;;;;;;;;32.75;27.25;;;;;17.67;100.00;99529.66;6284623;20;3612786;-61
2023/06/08 03:36:20;;;;;;;;;27.67;26.67;;;;;17.73;100.00;99526.34;6317878;20;3594037;-60
2023/06/08 03:38:49;;;;;;;;;28.67;27.00;;;;;17.73;100.00;99529.06;6287108;20;3602308;-60
2023/06/08 03:41:17;;;;;;;;;28.00;27.00;;;;;17.71;100.00;99522.06;6287328;20;3596156;-61
2023/06/08 03:43:46;;;;;;;;;32.50;27.50;;;;;17.65;100.00;99530.78;6284177;20;3617081;-61
2023/06/08 03:46:14;;;;;;;;;27.33;26.33;;;;;17.59;100.00;99526.78;6316397;20;3602340;-60
2023/06/08 03:48:42;;;;;;;;;28.67;27.67;;;;;17.66;100.00;99524.34;6286322;20;3595121;-60
2023/06/08 03:51:11;;;;;;;;;29.50;28.75;;;;;17.73;100.00;99523.63;6288373;20;3614862;-60
2023/06/08 03:53:40;;;;;;;;;27.67;27.67;;;;;17.68;100.00;99525.91;6315469;20;3595074;-60
2023/06/08 03:56:09;;;;;;;;;31.00;29.50;;;;;17.77;100.00;99524.19;6285447;20;3620077;-61
2023/06/08 03:58:38;;;;;;;;;32.00;27.67;;;;;17.72;100.00;99518.31;6315338;20;3606550;-60
2023/06/08 04:01:06;;;;;;;;;27.33;24.33;;;;;17.78;100.00;99526.78;6285545;20;3578415;-60
2023/06/08 04:03:34;;;;;;;;;28.33;28.00;;;;;17.80;100.00;99529.38;6284668;20;3596066;-61
2023/06/08 04:06:08;;;;;;;;;25.33;25.33;;;;;17.70;100.00;99528.50;6286487;20;3589882;-61
2023/06/08 04:08:44;;;;;;;;;26.33;26.33;;;;;17.74;100.00;99527.19;6283146;20;3593111;-61
2023/06/08 04:11:13;;;;;;;;;34.33;30.33;;;;;17.83;100.00;99533.69;6284120;20;3580597;-61
2023/06/08 04:13:42;;;;;;;;;22.33;22.00;;;;;17.90;100.00;99523.91;6316628;20;3582564;-61
2023/06/08 04:16:12;;;;;;;;;30.67;27.00;;;;;17.84;100.00;99529.94;6285378;20;3606891;-61
2023/06/08 04:18:40;;;;;;;;;24.33;22.00;;;;;17.88;100.00;99537.66;6284295;20;3578462;-61
2023/06/08 04:21:08;;;;;;;;;24.67;23.33;;;;;17.86;100.00;99533.38;6283583;20;3584694;-61
2023/06/08 04:23:37;;;;;;;;;27.00;26.33;;;;;17.94;100.00;99536.22;6281308;20;3598291;-61
2023/06/08 04:26:07;;;;;;;;;25.33;25.33;;;;;17.87;100.00;99535.09;6314061;20;3594042;-61
2023/06/08 04:28:35;;;;;;;;;29.33;26.00;;;;;17.83;100.00;99529.09;6284579;20;3591961;-61
2023/06/08 04:31:04;;;;;;;;;24.00;22.33;;;;;17.82;100.00;99529.22;6280286;20;2842962;-61
2023/06/08 04:33:33;;;;;;;;;32.67;29.33;;;;;17.88;100.00;99525.94;6313260;20;3595089;-60
2023/06/08 04:36:01;;;;;;;;;29.00;25.67;;;;;17.77;100.00;99533.22;6285580;20;3598204;-61
2023/06/08 04:38:30;;;;;;;;;31.67;26.00;;;;;17.93;100.00;99539.94;6282169;20;3586726;-62
2023/06/08 04:41:01;;;;;;;;;33.33;30.00;;;;;17.78;100.00;99532.19;6283257;20;3606541;-61
2023/06/08 04:43:30;;;;;;;;;32.67;30.00;;;;;17.78;100.00;99536.78;6282557;20;3606515;-61
2023/06/08 04:45:59;;;;;;;;;30.33;29.00;;;;;17.82;100.00;99534.66;6283308;20;3602494;-61
2023/06/08 04:48:28;;;;;;;;;35.67;31.33;;;;;17.82;100.00;99537.38;6283887;20;3588912;-61
2023/06/08 04:51:03;;;;;;;;;39.67;32.33;;;;;17.88;100.00;99536.81;6279586;20;3602374;-61
2023/06/08 04:53:35;;;;;;;;;49.50;35.00;;;;;17.87;100.00;99533.22;6314254;20;3504253;-61
2023/06/08 04:56:05;;;;;;;;;37.33;32.33;;;;;17.95;100.00;99537.94;6315782;20;3602470;-62
2023/06/08 04:58:34;;;;;;;;;35.33;31.33;;;;;17.97;100.00;99542.22;6282404;20;3593069;-61
2023/06/08 05:01:02;;;;;;;;;27.33;27.33;;;;;17.87;100.00;99537.78;6314288;20;3591989;-61
2023/06/08 05:03:31;;;;;;;;;34.67;30.33;;;;;17.84;100.00;99538.94;6285744;20;3598392;-61
2023/06/08 05:05:59;;;;;;;;;36.67;32.00;;;;;17.97;100.00;99544.06;6286129;20;3582606;-61
2023/06/08 05:08:27;;;;;;;;;35.00;32.00;;;;;17.95;100.00;99537.94;6283812;20;3600340;-61
2023/06/08 05:10:56;;;;;;;;;43.75;32.25;;;;;18.02;100.00;99533.63;6283568;20;3614896;-61
2023/06/08 05:13:24;;;;;;;;;33.33;31.33;;;;;17.98;100.00;99537.63;6313018;20;3579518;-61
2023/06/08 05:15:58;;;;;;;;;42.33;32.00;;;;;18.03;100.00;99537.19;6279113;20;2855579;-61
2023/06/08 05:18:26;;;;;;;;;34.00;30.00;;;;;18.18;100.00;99544.75;6316922;20;3585743;-61
2023/06/08 05:20:54;;;;;;;;;40.00;34.00;;;;;18.15;100.00;99539.63;6285773;20;3581586;-61
2023/06/08 05:23:23;;;;;;;;;34.33;30.00;;;;;18.09;100.00;99533.88;6281546;20;3584736;-61
2023/06/08 05:25:52;;;;;;;;;39.67;33.00;;;;;18.27;100.00;99537.56;6318382;20;3610665;-61
2023/06/08 05:28:20;;;;;;;;;39.33;32.00;;;;;18.19;100.00;99534.72;6287930;20;3587770;-61
2023/06/08 05:30:48;;;;;;;;;42.00;32.00;;;;;18.36;100.00;99538.56;6282299;20;3595039;-61
2023/06/08 05:33:17;;;;;;;;;38.00;34.00;;;;;18.39;100.00;99535.53;6286161;20;3596142;-61
2023/06/08 05:35:45;;;;;;;;;33.67;31.00;;;;;18.41;100.00;99544.41;6285748;20;3591934;-61
2023/06/08 05:38:14;;;;;;;;;38.33;32.67;;;;;18.45;100.00;99542.25;6281633;20;2856665;-61
2023/06/08 05:40:42;;;;;;;;;34.00;32.00;;;;;18.35;100.00;99539.53;6316416;20;3589855;-61
2023/06/08 05:43:11;;;;;;;;;39.67;34.00;;;;;18.48;100.00;99531.91;6285342;20;3592957;-61
2023/06/08 05:45:40;;;;;;;;;39.00;34.33;;;;;18.63;100.00;99537.72;6280141;20;2842072;-61
2023/06/08 05:48:08;;;;;;;;;37.00;34.00;;;;;18.62;100.00;99541.47;6307814;20;3576369;-60
2023/06/08 05:50:36;;;;;;;;;37.33;31.67;;;;;18.70;100.00;99543.44;6278179;20;3603400;-60
2023/06/08 05:53:05;;;;;;;;;39.00;33.67;;;;;18.79;100.00;99548.00;6270816;20;3592078;-61
2023/06/08 05:55:34;;;;;;;;;41.67;35.00;;;;;18.74;100.00;99553.84;6303626;20;3594173;-60
2023/06/08 05:58:02;;;;;;;;;43.33;36.00;;;;;18.52;100.00;99548.81;6277962;20;3585138;-61
2023/06/08 06:00:32;;;;;;;;;43.00;35.33;;;;;18.68;100.00;99545.44;6272962;20;2850390;-61
2023/06/08 06:03:00;;;;;;;;;44.67;36.00;;;;;18.62;100.00;99538.75;6310106;20;3602411;-61
2023/06/08 06:05:31;;;;;;;;;46.33;37.33;;;;;18.46;100.00;99544.81;6278537;20;3597150;-61
2023/06/08 06:07:59;;;;;;;;;42.00;36.00;;;;;18.59;100.00;99542.63;6278433;20;3573288;-61
2023/06/08 06:10:28;;;;;;;;;45.00;37.67;;;;;18.53;100.00;99542.34;6272496;20;3604556;-60
2023/06/08 06:12:56;;;;;;;;;44.33;38.33;;;;;18.57;100.00;99546.50;6308117;20;3599205;-61
2023/06/08 06:15:25;;;;;;;;;43.67;34.33;;;;;18.51;100.00;99539.81;6277944;20;3589886;-60
2023/06/08 06:17:53;;;;;;;;;41.00;32.33;;;;;18.47;100.00;99554.69;6276432;20;3591892;-60
2023/06/08 06:20:23;;;;;;;;;44.67;36.00;;;;;18.41;100.00;99549.84;6276615;20;3596110;-60
2023/06/08 06:22:52;;;;;;;;;40.33;35.67;;;;;18.43;100.00;99553.25;6276182;20;2843004;-60
2023/06/08 06:25:21;;;;;;;;;44.00;35.33;;;;;18.43;100.00;99553.25;6306923;20;3587943;-60
2023/06/08 06:27:49;;;;;;;;;40.67;32.33;;;;;18.43;100.00;99553.25;6275554;20;3597173;-60
2023/06/08 06:30:17;;;;;;;;;38.33;32.67;;;;;18.36;100.00;99555.72;6274039;20;3588840;-60
2023/06/08 06:32:46;;;;;;;;;36.33;32.00;;;;;18.43;100.00;99558.69;6279362;20;3599218;-60
2023/06/08 06:35:34;;;;;;;;;33.67;30.00;;;;;18.59;100.00;99552.66;6271035;20;3590879;-60
2023/06/08 06:38:22;;;;;;;;;35.00;26.67;;;;;18.73;100.00;99554.88;6304395;20;1906537;-61
2023/06/08 06:40:54;;;;;;;;;36.67;31.67;;;;;18.61;100.00;99551.47;6305441;20;3583741;-60
2023/06/08 06:43:26;;;;;;;;;28.00;25.00;;;;;18.79;100.00;99558.88;6273647;20;3600337;-60
2023/06/08 06:45:58;;;;;;;;;28.00;27.00;;;;;18.81;100.00;99557.72;6274458;20;2683742;-60
2023/06/08 06:48:30;;;;;;;;;25.00;25.00;;;;;18.98;100.00;99552.47;6306560;20;3572392;-60
2023/06/08 06:51:02;;;;;;;;;26.00;26.00;;;;;19.11;100.00;99552.13;6277455;20;3596185;-58
2023/06/08 06:53:34;;;;;;;;;28.00;27.33;;;;;19.34;100.00;99550.69;6273839;20;3593039;-59
2023/06/08 06:56:06;;;;;;;;;21.67;19.67;;;;;19.35;100.00;99552.38;6274718;20;3577374;-59
2023/06/08 06:58:38;;;;;;;;;16.50;15.50;;;;;19.48;100.00;99552.88;6268850;20;2826349;-59
2023/06/08 07:01:12;;;;;;;;;15.50;14.00;;;;;19.72;100.00;99551.41;6269755;20;2809722;-60
2023/06/08 07:03:46;;;;;;;;;24.00;23.00;;;;;19.82;100.00;99546.75;6271097;20;3595107;-59
2023/06/08 07:06:24;;;;;;;;;11.33;11.33;;;;;20.13;100.00;99554.50;6280727;20;2789879;-59
2023/06/08 07:08:56;;;;;;;;;9.00;9.00;;;;;20.29;100.00;99549.13;6310804;20;2761141;-59
2023/06/08 07:11:29;;;;;;;;;10.60;8.80;;;;;20.72;100.00;99547.41;6334466;20;2770110;-59
2023/06/08 07:14:01;;;;;;;;;8.20;8.20;;;;;20.96;100.00;99548.53;6303548;20;2747292;-59
2023/06/08 07:16:34;;;;;;;;;9.60;7.40;;;;;21.05;100.00;99545.63;6334023;20;2753439;-60
2023/06/08 07:19:07;;;;;;;;;7.00;7.00;;;;;21.02;100.00;99550.59;6295035;20;2742513;-59
2023/06/08 07:21:40;;;;;;;;;6.67;6.67;;;;;20.76;100.00;99551.50;6314170;20;2742032;-60
2023/06/08 07:24:21;;;;;;;;;8.80;7.80;;;;;21.13;100.00;99539.34;6334156;20;2733852;-61
2023/06/08 07:27:13;;;;;;;;;8.20;7.80;;;;;21.06;100.00;99541.03;6338339;20;2734657;-60
2023/06/08 07:29:45;;;;;;;;;9.33;9.00;;;;;20.77;100.00;99539.56;6305489;20;2761906;-61
2023/06/08 07:32:17;;;;;;;;;10.67;9.33;;;;;20.93;100.00;99536.06;6307929;20;3499209;-61
2023/06/08 07:34:50;;;;;;;;;10.00;10.00;;;;;20.61;100.00;99543.06;6313255;20;2783622;-60
2023/06/08 07:37:22;;;;;;;;;11.00;11.00;;;;;20.77;100.00;99536.84;6308870;20;3505576;-61
2023/06/08 07:39:53;;;;;;;;;11.67;11.67;;;;;20.65;100.00;99548.22;6309170;20;3526290;-60
2023/06/08 07:42:25;;;;;;;;;14.67;14.00;;;;;20.75;100.00;99544.34;6306633;20;3526297;-60
2023/06/08 07:44:57;;;;;;;;;11.67;11.67;;;;;20.85;100.00;99559.72;6271808;20;3526308;-60
2023/06/08 07:47:29;;;;;;;;;15.00;15.00;;;;;20.64;100.00;99544.59;6276072;20;2804475;-59
2023/06/08 07:50:01;;;;;;;;;17.00;15.00;;;;;20.77;100.00;99552.34;6276185;20;2819101;-59
2023/06/08 07:52:33;;;;;;;;;12.67;12.67;;;;;20.75;100.00;99555.25;6276146;20;3527347;-59
2023/06/08 07:55:06;;;;;;;;;21.33;18.33;;;;;20.88;100.00;99553.91;6278337;20;2483687;-59
2023/06/08 07:57:37;;;;;;;;;21.67;19.33;;;;;21.00;100.00;99558.06;6310187;20;3571097;-60
2023/06/08 08:00:10;;;;;;;;;18.00;16.67;;;;;21.09;100.00;99554.38;6278588;20;3562792;-60
2023/06/08 08:02:43;;;;;;;;;15.00;15.00;;;;;20.85;100.00;99555.09;6275190;20;3531585;-60
2023/06/08 08:05:15;;;;;;;;;15.00;15.00;;;;;20.71;100.00;99553.00;6275103;20;2492004;-60
2023/06/08 08:07:47;;;;;;;;;15.33;15.33;;;;;20.41;100.00;99551.63;6313285;20;3548168;-60
2023/06/08 08:10:19;;;;;;;;;16.50;16.50;;;;;20.54;100.00;99557.53;6302890;20;2832541;-61
2023/06/08 08:12:52;;;;;;;;;18.00;17.00;;;;;20.58;100.00;99556.16;6272207;20;2835710;-60
2023/06/08 08:15:24;;;;;;;;;17.33;17.33;;;;;20.36;100.00;99554.81;6281134;20;3562747;-61
2023/06/08 08:17:56;;;;;;;;;27.33;18.33;;;;;20.49;100.00;99559.84;6277363;20;3583606;-61
2023/06/08 08:20:28;;;;;;;;;19.00;19.00;;;;;20.61;100.00;99553.13;6279542;20;3575328;-61
2023/06/08 08:23:00;;;;;;;;;20.33;20.33;;;;;20.54;100.00;99547.47;6276837;20;3563828;-60
2023/06/08 08:25:33;;;;;;;;;22.67;21.33;;;;;20.85;100.00;99548.78;6277623;20;3578425;-61
2023/06/08 08:28:05;;;;;;;;;23.33;21.67;;;;;20.96;100.00;99553.97;6279479;20;3563921;-61
2023/06/08 08:30:37;;;;;;;;;21.67;19.33;;;;;20.75;100.00;99555.25;6274213;20;3583664;-60
2023/06/08 08:33:10;;;;;;;;;25.00;24.33;;;;;20.71;100.00;99553.84;6305636;20;3579457;-61
2023/06/08 08:35:46;;;;;;;;;28.00;26.33;;;;;20.89;100.00;99555.66;6302802;20;3585683;-60
2023/06/08 08:38:17;;;;;;;;;39.50;30.00;;;;;21.04;100.00;99554.00;6307352;20;1903396;-61
2023/06/08 08:40:52;;;;;;;;;33.67;30.00;;;;;21.56;100.00;99558.44;6278090;20;2844266;-60
2023/06/08 08:43:50;;;;;;;;;33.33;31.00;;;;;22.05;100.00;99562.06;6308482;20;3588799;-60
2023/06/08 08:46:22;;;;;;;;;32.33;30.00;;;;;22.86;100.00;99557.47;6317829;20;3581631;-60
2023/06/08 08:48:57;;;;;;;;;33.00;30.00;;;;;23.91;94.67;99550.72;6283866;20;3595083;-60
2023/06/08 08:51:32;;;;;;;;;28.75;27.75;;;;;23.49;96.18;99547.44;6288099;20;3600396;-61
2023/06/08 08:54:00;;;;;;;;;32.33;29.67;;;;;23.50;94.62;99553.75;6318838;20;3589873;-61
2023/06/08 08:56:35;;;;;;;;;29.25;25.50;;;;;24.23;92.03;99553.22;6285386;20;3601298;-61
2023/06/08 08:59:05;;;;;;;;;26.00;25.00;;;;;23.88;90.40;99550.09;6315280;20;3588829;-60
2023/06/08 09:01:36;;;;;;;;;28.00;28.00;;;;;23.80;93.00;99554.75;6314623;20;3602450;-60
2023/06/08 09:04:06;;;;;;;;;30.75;29.00;;;;;23.24;96.26;99549.44;6313084;20;3600361;-61
2023/06/08 09:06:35;;;;;;;;;33.33;31.00;;;;;22.54;95.76;99547.50;6316934;20;3590022;-60
2023/06/08 09:09:05;;;;;;;;;35.00;31.00;;;;;22.27;100.00;99544.09;6286777;20;3593983;-61
2023/06/08 09:11:34;;;;;;;;;32.67;30.00;;;;;22.29;100.00;99552.16;6284804;20;3586795;-61
2023/06/08 09:14:08;;;;;;;;;35.67;33.00;;;;;22.07;100.00;99561.91;6283570;20;3610703;-60
2023/06/08 09:16:43;;;;;;;;;34.33;32.00;;;;;22.06;100.00;99555.53;6286436;20;3600300;-60
2023/06/08 09:19:11;;;;;;;;;32.00;30.00;;;;;22.42;100.00;99543.41;6286723;20;3575579;-60
2023/06/08 09:21:44;;;;;;;;;36.67;33.00;;;;;22.17;100.00;99540.69;6286091;20;3576359;-60
2023/06/08 09:24:17;;;;;;;;;39.00;32.33;;;;;22.02;100.00;99543.25;6283459;20;3607634;-59
2023/06/08 09:26:56;;;;;;;;;36.00;29.75;;;;;21.97;100.00;99542.06;6286279;20;3601374;-60
2023/06/08 09:29:34;;;;;;;;;37.00;32.67;;;;;21.97;100.00;99537.44;6312492;20;3589902;-60
2023/06/08 09:32:09;;;;;;;;;40.33;34.33;;;;;21.97;100.00;99544.81;6285502;20;3577467;-60
2023/06/08 09:35:01;;;;;;;;;34.33;32.00;;;;;22.14;100.00;99536.41;6285367;20;3583616;-60
2023/06/08 09:37:33;;;;;;;;;36.33;31.33;;;;;22.09;100.00;99538.81;6284169;20;3596175;-61
2023/06/08 09:40:04;;;;;;;;;36.33;32.00;;;;;21.86;100.00;99532.34;6283216;20;3591053;-61
2023/06/08 09:42:50;;;;;;;;;33.67;30.33;;;;;21.71;100.00;99534.88;6282934;20;3595073;-60
2023/06/08 09:45:20;;;;;;;;;37.00;32.33;;;;;21.71;100.00;99534.88;6284362;20;3599237;-61
2023/06/08 09:47:49;;;;;;;;;33.75;31.75;;;;;21.60;100.00;99533.34;6281045;20;3593987;-60
2023/06/08 09:50:19;;;;;;;;;39.25;32.50;;;;;21.57;100.00;99521.91;6318877;20;3611793;-61
2023/06/08 09:52:48;;;;;;;;;35.33;32.00;;;;;21.59;100.00;99515.25;6314784;20;3603391;-61
2023/06/08 09:55:18;;;;;;;;;37.00;32.67;;;;;21.54;100.00;99512.16;6276686;20;3590894;-61
2023/06/08 09:57:47;;;;;;;;;34.67;32.33;;;;;21.44;100.00;99515.06;6312142;20;3601314;-61
2023/06/08 10:00:20;;;;;;;;;34.00;31.00;;;;;21.47;100.00;99513.84;6282155;20;3603475;-61
2023/06/08 10:03:16;;;;;;;;;36.33;30.00;;;;;21.46;100.00;99503.97;6281452;20;3599311;-60
2023/06/08 10:05:46;;;;;;;;;35.67;32.67;;;;;21.38;100.00;99501.19;6283872;20;3569127;-61
2023/06/08 10:08:20;;;;;;;;;37.33;33.00;;;;;21.59;100.00;99497.97;6283014;20;3606529;-61
2023/06/08 10:10:49;;;;;;;;;34.67;31.33;;;;;21.63;100.00;99489.28;6286576;20;3595032;-61
2023/06/08 10:13:18;;;;;;;;;37.67;33.00;;;;;21.79;100.00;99490.31;6280914;20;3599235;-60
2023/06/08 10:15:47;;;;;;;;;34.33;30.33;;;;;21.60;100.00;99484.16;6281795;20;3583593;-61
2023/06/08 10:18:17;;;;;;;;;33.00;31.33;;;;;21.74;100.00;99474.41;6282952;20;3577356;-61
2023/06/08 10:20:46;;;;;;;;;39.00;33.00;;;;;21.79;100.00;99465.69;6281439;20;3587851;-61
2023/06/08 10:23:15;;;;;;;;;34.00;32.00;;;;;21.82;100.00;99466.19;6281897;20;3594121;-61
2023/06/08 10:25:44;;;;;;;;;34.67;32.67;;;;;21.70;100.00;99468.44;6284953;20;3589882;-60
2023/06/08 10:28:14;;;;;;;;;35.67;31.67;;;;;21.91;100.00;99464.34;6287087;20;3607721;-61
2023/06/08 10:30:46;;;;;;;;;33.00;30.00;;;;;21.82;100.00;99459.88;6285223;20;3598191;-61
2023/06/08 10:33:20;;;;;;;;;46.00;36.67;;;;;21.82;100.00;99459.88;6278985;20;3599312;-61
2023/06/08 10:36:07;;;;;;;;;39.67;34.67;;;;;21.74;100.00;99459.91;6314125;20;3588846;-61
2023/06/08 10:38:55;;;;;;;;;40.00;35.33;;;;;21.63;100.00;99445.56;6285011;20;3572186;-61
2023/06/08 10:41:57;;;;;;;;;36.67;32.67;;;;;21.59;100.00;99448.78;6285078;20;3579549;-61
2023/06/08 10:44:40;;;;;;;;;42.33;36.00;;;;;21.70;100.00;99446.59;6283114;20;3573336;-61
2023/06/08 10:47:12;;;;;;;;;36.33;32.00;;;;;21.76;100.00;99444.19;6285720;20;3613756;-62
2023/06/08 10:49:46;;;;;;;;;46.00;36.33;;;;;21.82;100.00;99443.50;6286748;20;3596138;-62
2023/06/08 10:52:21;;;;;;;;;40.00;33.67;;;;;21.58;100.00;99437.00;6289917;20;3599218;-62
2023/06/08 10:55:13;;;;;;;;;42.00;35.33;;;;;21.74;100.00;99443.50;6290445;20;3565887;-62
2023/06/08 10:57:50;;;;;;;;;40.00;35.00;;;;;21.74;100.00;99444.34;6289476;20;3580567;-62
2023/06/08 11:00:22;;;;;;;;;34.33;30.00;;;;;21.92;100.00;99446.91;6284097;20;3602394;-61
2023/06/08 11:02:54;;;;;;;;;37.67;33.33;;;;;22.12;100.00;99453.69;6274984;20;3596193;-61
2023/06/08 11:05:23;;;;;;;;;39.00;33.00;;;;;22.18;100.00;99460.34;6288938;20;3606625;-64
2023/06/08 11:07:56;;;;;;;;;37.00;33.00;;;;;22.24;100.00;99458.81;6287263;20;3594193;-61
2023/06/08 11:10:24;;;;;;;;;35.00;32.00;;;;;22.23;100.00;99457.13;6286577;20;3595081;-61
2023/06/08 11:12:53;;;;;;;;;32.00;30.33;;;;;22.46;100.00;99452.59;6283662;20;3586769;-61
2023/06/08 11:15:25;;;;;;;;;33.33;30.00;;;;;22.58;100.00;99450.31;6287372;20;3597135;-61